createdAt,value
2017-11-11T00:00:32.435Z,0
2017-11-11T00:01:32.752Z,0
2017-11-11T00:02:32.393Z,0
2017-11-11T00:03:32.722Z,0
2017-11-11T00:04:32.365Z,0
2017-11-11T00:05:32.692Z,0
2017-11-11T00:06:32.674Z,0
2017-11-11T00:07:32.314Z,0
2017-11-11T00:08:32.716Z,0
2017-11-11T00:09:32.282Z,0
2017-11-11T00:10:32.270Z,0
2017-11-11T00:11:32.247Z,0
2017-11-11T00:12:32.230Z,0
2017-11-11T00:13:32.219Z,0
2017-11-11T00:14:32.555Z,0
2017-11-11T00:15:32.203Z,0
2017-11-11T00:16:32.166Z,0
2017-11-11T00:17:32.492Z,0
2017-11-11T00:18:32.484Z,0
2017-11-11T00:19:32.113Z,0
2017-11-11T00:20:32.111Z,0
2017-11-11T00:21:32.425Z,0
2017-11-11T00:22:32.438Z,0
2017-11-11T00:23:32.047Z,0
2017-11-11T00:24:32.028Z,0
2017-11-11T00:25:32.355Z,0
2017-11-11T00:26:32.342Z,0
2017-11-11T00:27:31.981Z,0
2017-11-11T00:28:31.967Z,0
2017-11-11T00:29:32.292Z,0
2017-11-11T00:30:31.954Z,0
2017-11-11T00:31:32.257Z,0
2017-11-11T00:32:31.901Z,0
2017-11-11T00:33:31.882Z,0
2017-11-11T00:34:32.209Z,0
2017-11-11T00:35:32.198Z,0
2017-11-11T00:36:31.837Z,0
2017-11-11T00:37:31.816Z,0
2017-11-11T00:38:31.813Z,0
2017-11-11T00:39:31.785Z,0
2017-11-11T00:40:31.767Z,0
2017-11-11T00:41:31.749Z,0
2017-11-11T00:42:32.072Z,0
2017-11-11T00:43:31.714Z,0
2017-11-11T00:44:32.040Z,0
2017-11-11T00:45:32.023Z,0
2017-11-11T00:46:32.014Z,0
2017-11-11T00:47:31.996Z,0
2017-11-11T00:48:31.977Z,0
2017-11-11T00:49:31.617Z,0
2017-11-11T00:50:31.599Z,0
2017-11-11T00:51:31.584Z,0
2017-11-11T00:52:31.912Z,0
2017-11-11T00:53:31.545Z,0
2017-11-11T00:54:31.879Z,0
2017-11-11T00:55:31.515Z,0
2017-11-11T00:56:31.500Z,0
2017-11-11T00:57:31.478Z,0
2017-11-11T00:58:31.806Z,0
2017-11-11T00:59:31.817Z,0
2017-11-11T01:00:31.774Z,0
2017-11-11T01:01:31.769Z,0
2017-11-11T01:02:31.395Z,0
2017-11-11T01:03:31.717Z,0
2017-11-11T01:04:31.709Z,0
2017-11-11T01:05:31.360Z,0
2017-11-11T01:06:31.329Z,0
2017-11-11T01:07:31.317Z,0
2017-11-11T01:08:31.294Z,0
2017-11-11T01:09:31.279Z,0
2017-11-11T01:10:31.267Z,0
2017-11-11T01:11:31.244Z,0
2017-11-11T01:12:31.228Z,0
2017-11-11T01:13:31.209Z,0
2017-11-11T01:14:31.201Z,0
2017-11-11T01:15:31.177Z,0
2017-11-11T01:16:31.504Z,0
2017-11-11T01:17:31.485Z,0
2017-11-11T01:18:31.122Z,0
2017-11-11T01:19:31.111Z,0
2017-11-11T01:20:31.093Z,0
2017-11-11T01:21:31.088Z,0
2017-11-11T01:22:31.399Z,0
2017-11-11T01:23:31.044Z,0
2017-11-11T01:24:31.363Z,0
2017-11-11T01:25:31.007Z,0
2017-11-11T01:26:30.998Z,0
2017-11-11T01:27:30.973Z,0
2017-11-11T01:28:31.299Z,0
2017-11-11T01:29:30.937Z,0
2017-11-11T01:30:31.265Z,0
2017-11-11T01:31:30.919Z,0
2017-11-11T01:32:30.913Z,0
2017-11-11T01:33:30.868Z,0
2017-11-11T01:34:30.852Z,0
2017-11-11T01:35:31.175Z,0
2017-11-11T01:36:31.159Z,0
2017-11-11T01:37:31.139Z,0
2017-11-11T01:38:30.784Z,0
2017-11-11T01:39:30.767Z,0
2017-11-11T01:40:31.093Z,0
2017-11-11T01:41:30.739Z,0
2017-11-11T01:42:31.062Z,0
2017-11-11T01:43:30.699Z,0
2017-11-11T01:44:31.025Z,0
2017-11-11T01:45:30.663Z,0
2017-11-11T01:46:31.001Z,0
2017-11-11T01:47:30.991Z,0
2017-11-11T01:48:30.613Z,0
2017-11-11T01:49:30.596Z,0
2017-11-11T01:50:30.580Z,0
2017-11-11T01:51:30.905Z,0
2017-11-11T01:52:30.888Z,0
2017-11-11T01:53:30.875Z,0
2017-11-11T01:54:30.510Z,0
2017-11-11T01:55:30.493Z,0
2017-11-11T01:56:30.822Z,0
2017-11-11T01:57:30.800Z,0
2017-11-11T01:58:30.444Z,0
2017-11-11T01:59:30.422Z,0
2017-11-11T02:00:30.751Z,0
2017-11-11T02:01:30.776Z,0
2017-11-11T02:02:30.374Z,0
2017-11-11T02:03:30.369Z,0
2017-11-11T02:04:30.680Z,0
2017-11-11T02:05:30.685Z,0
2017-11-11T02:06:30.319Z,0
2017-11-11T02:07:30.289Z,0
2017-11-11T02:08:30.292Z,0
2017-11-11T02:09:30.608Z,0
2017-11-11T02:10:30.245Z,0
2017-11-11T02:11:30.222Z,0
2017-11-11T02:12:30.550Z,0
2017-11-11T02:13:30.530Z,0
2017-11-11T02:14:30.520Z,0
2017-11-11T02:15:30.152Z,0
2017-11-11T02:16:30.133Z,0
2017-11-11T02:17:30.465Z,0
2017-11-11T02:18:30.105Z,0
2017-11-11T02:19:30.085Z,0
2017-11-11T02:20:30.066Z,0
2017-11-11T02:21:30.070Z,0
2017-11-11T02:22:30.385Z,0
2017-11-11T02:23:30.042Z,0
2017-11-11T02:24:29.998Z,0
2017-11-11T02:25:29.989Z,0
2017-11-11T02:26:30.309Z,0
2017-11-11T02:27:29.948Z,0
2017-11-11T02:28:29.940Z,0
2017-11-11T02:29:29.914Z,0
2017-11-11T02:30:29.901Z,0
2017-11-11T02:31:29.878Z,0
2017-11-11T02:32:30.212Z,0
2017-11-11T02:33:29.844Z,0
2017-11-11T02:34:30.187Z,0
2017-11-11T02:35:30.164Z,0
2017-11-11T02:36:29.795Z,0
2017-11-11T02:37:29.782Z,0
2017-11-11T02:38:30.128Z,0
2017-11-11T02:39:29.744Z,0
2017-11-11T02:40:29.727Z,0
2017-11-11T02:41:29.712Z,0
2017-11-11T02:42:30.096Z,0
2017-11-11T02:43:29.674Z,0
2017-11-11T02:44:29.999Z,0
2017-11-11T02:45:29.639Z,0
2017-11-11T02:46:29.642Z,0
2017-11-11T02:47:29.951Z,0
2017-11-11T02:48:29.935Z,0
2017-11-11T02:49:29.585Z,0
2017-11-11T02:50:29.563Z,0
2017-11-11T02:51:29.881Z,0
2017-11-11T02:52:29.530Z,0
2017-11-11T02:53:29.503Z,0
2017-11-11T02:54:29.825Z,0
2017-11-11T02:55:29.470Z,0
2017-11-11T02:56:29.453Z,0
2017-11-11T02:57:29.788Z,0
2017-11-11T02:58:29.417Z,0
2017-11-11T02:59:29.745Z,0
2017-11-11T03:00:29.382Z,0
2017-11-11T03:01:29.706Z,0
2017-11-11T03:02:29.350Z,0
2017-11-11T03:03:29.676Z,0
2017-11-11T03:04:29.653Z,0
2017-11-11T03:05:29.295Z,0
2017-11-11T03:06:29.281Z,0
2017-11-11T03:07:29.262Z,0
2017-11-11T03:08:29.590Z,0
2017-11-11T03:09:29.236Z,0
2017-11-11T03:10:29.554Z,0
2017-11-11T03:11:29.205Z,0
2017-11-11T03:12:29.516Z,0
2017-11-11T03:13:29.166Z,0
2017-11-11T03:14:29.499Z,0
2017-11-11T03:15:29.126Z,0
2017-11-11T03:16:29.121Z,0
2017-11-11T03:17:29.455Z,0
2017-11-11T03:18:29.074Z,0
2017-11-11T03:19:29.400Z,0
2017-11-11T03:20:29.039Z,0
2017-11-11T03:21:29.368Z,0
2017-11-11T03:22:29.377Z,0
2017-11-11T03:23:29.336Z,0
2017-11-11T03:24:28.976Z,0
2017-11-11T03:25:28.981Z,0
2017-11-11T03:26:29.299Z,0
2017-11-11T03:27:28.941Z,0
2017-11-11T03:28:28.901Z,0
2017-11-11T03:29:29.240Z,0
2017-11-11T03:30:28.871Z,0
2017-11-11T03:31:28.851Z,0
2017-11-11T03:32:29.177Z,0
2017-11-11T03:33:29.182Z,0
2017-11-11T03:34:28.804Z,0
2017-11-11T03:35:29.126Z,0
2017-11-11T03:36:28.774Z,0
2017-11-11T03:37:28.747Z,0
2017-11-11T03:38:29.078Z,0
2017-11-11T03:39:28.733Z,0
2017-11-11T03:40:28.705Z,0
2017-11-11T03:41:29.030Z,0
2017-11-11T03:42:28.660Z,0
2017-11-11T03:43:28.644Z,0
2017-11-11T03:44:28.636Z,0
2017-11-11T03:45:28.957Z,0
2017-11-11T03:46:28.596Z,0
2017-11-11T03:47:28.577Z,0
2017-11-11T03:48:28.560Z,0
2017-11-11T03:49:28.544Z,0
2017-11-11T03:50:28.523Z,0
2017-11-11T03:51:28.845Z,0
2017-11-11T03:52:28.844Z,0
2017-11-11T03:53:28.474Z,0
2017-11-11T03:54:28.457Z,0
2017-11-11T03:55:28.779Z,0
2017-11-11T03:56:28.419Z,0
2017-11-11T03:57:28.404Z,0
2017-11-11T03:58:28.390Z,0
2017-11-11T03:59:28.369Z,0
2017-11-11T04:00:28.353Z,0
2017-11-11T04:01:28.355Z,0
2017-11-11T04:02:28.319Z,0
2017-11-11T04:03:28.303Z,0
2017-11-11T04:04:28.286Z,0
2017-11-11T04:05:28.610Z,0
2017-11-11T04:06:28.593Z,0
2017-11-11T04:07:28.235Z,0
2017-11-11T04:08:28.566Z,0
2017-11-11T04:09:28.541Z,0
2017-11-11T04:10:28.202Z,0
2017-11-11T04:11:28.168Z,0
2017-11-11T04:12:28.490Z,0
2017-11-11T04:13:28.128Z,0
2017-11-11T04:14:28.114Z,0
2017-11-11T04:15:28.095Z,0
2017-11-11T04:16:28.420Z,0
2017-11-11T04:17:28.406Z,0
2017-11-11T04:18:28.392Z,0
2017-11-11T04:19:28.029Z,0
2017-11-11T04:20:28.012Z,0
2017-11-11T04:21:28.333Z,0
2017-11-11T04:22:27.980Z,0
2017-11-11T04:23:27.960Z,0
2017-11-11T04:24:28.285Z,0
2017-11-11T04:25:28.272Z,0
2017-11-11T04:26:28.257Z,0
2017-11-11T04:27:27.895Z,0
2017-11-11T04:28:28.225Z,0
2017-11-11T04:29:28.199Z,0
2017-11-11T04:30:28.184Z,0
2017-11-11T04:31:28.209Z,0
2017-11-11T04:32:27.806Z,0
2017-11-11T04:33:27.799Z,0
2017-11-11T04:34:28.120Z,0
2017-11-11T04:35:27.759Z,0
2017-11-11T04:36:27.747Z,0
2017-11-11T04:37:27.727Z,0
2017-11-11T04:38:28.065Z,0
2017-11-11T04:39:28.034Z,0
2017-11-11T04:40:28.045Z,0
2017-11-11T04:41:27.998Z,0
2017-11-11T04:42:27.981Z,0
2017-11-11T04:43:27.624Z,0
2017-11-11T04:44:27.609Z,0
2017-11-11T04:45:27.588Z,0
2017-11-11T04:46:27.572Z,0
2017-11-11T04:47:27.554Z,0
2017-11-11T04:48:27.541Z,0
2017-11-11T04:49:27.522Z,0
2017-11-11T04:50:27.504Z,0
2017-11-11T04:51:27.834Z,0
2017-11-11T04:52:27.473Z,0
2017-11-11T04:53:27.456Z,0
2017-11-11T04:54:27.439Z,0
2017-11-11T04:55:27.429Z,0
2017-11-11T04:56:27.747Z,0
2017-11-11T04:57:27.729Z,0
2017-11-11T04:58:27.372Z,0
2017-11-11T04:59:27.372Z,0
2017-11-11T05:00:27.340Z,0
2017-11-11T05:01:27.706Z,0
2017-11-11T05:02:27.649Z,0
2017-11-11T05:03:27.295Z,0
2017-11-11T05:04:27.273Z,0
2017-11-11T05:05:27.595Z,0
2017-11-11T05:06:27.241Z,0
2017-11-11T05:07:27.225Z,0
2017-11-11T05:08:27.556Z,0
2017-11-11T05:09:27.538Z,0
2017-11-11T05:10:27.172Z,0
2017-11-11T05:11:27.209Z,0
2017-11-11T05:12:27.139Z,0
2017-11-11T05:13:27.125Z,0
2017-11-11T05:14:27.105Z,0
2017-11-11T05:15:27.090Z,0
2017-11-11T05:16:27.094Z,0
2017-11-11T05:17:27.405Z,0
2017-11-11T05:18:27.382Z,0
2017-11-11T05:19:27.394Z,0
2017-11-11T05:20:27.347Z,0
2017-11-11T05:21:26.992Z,0
2017-11-11T05:22:26.998Z,0
2017-11-11T05:23:27.312Z,0
2017-11-11T05:24:26.942Z,0
2017-11-11T05:25:27.273Z,0
2017-11-11T05:26:26.910Z,0
2017-11-11T05:27:26.896Z,0
2017-11-11T05:28:26.877Z,0
2017-11-11T05:29:27.201Z,0
2017-11-11T05:30:26.842Z,0
2017-11-11T05:31:27.171Z,0
2017-11-11T05:32:26.824Z,0
2017-11-11T05:33:27.139Z,0
2017-11-11T05:34:26.781Z,0
2017-11-11T05:35:27.107Z,0
2017-11-11T05:36:26.747Z,0
2017-11-11T05:37:26.749Z,0
2017-11-11T05:38:26.717Z,0
2017-11-11T05:39:27.042Z,0
2017-11-11T05:40:27.041Z,0
2017-11-11T05:41:26.663Z,0
2017-11-11T05:42:26.993Z,0
2017-11-11T05:43:26.973Z,0
2017-11-11T05:44:26.963Z,0
2017-11-11T05:45:26.601Z,0
2017-11-11T05:46:26.928Z,0
2017-11-11T05:47:26.567Z,0
2017-11-11T05:48:26.551Z,0
2017-11-11T05:49:26.876Z,0
2017-11-11T05:50:26.859Z,0
2017-11-11T05:51:26.847Z,0
2017-11-11T05:52:26.495Z,0
2017-11-11T05:53:26.471Z,0
2017-11-11T05:54:26.453Z,0
2017-11-11T05:55:26.452Z,0
2017-11-11T05:56:26.773Z,0
2017-11-11T05:57:26.406Z,0
2017-11-11T05:58:26.389Z,0
2017-11-11T05:59:26.744Z,0
2017-11-11T06:00:26.356Z,0
2017-11-11T06:01:26.690Z,0
2017-11-11T06:02:26.324Z,0
2017-11-11T06:03:26.306Z,0
2017-11-11T06:04:26.644Z,0
2017-11-11T06:05:26.633Z,0
2017-11-11T06:06:26.605Z,0
2017-11-11T06:07:26.581Z,0
2017-11-11T06:08:26.226Z,0
2017-11-11T06:09:26.571Z,0
2017-11-11T06:10:26.194Z,0
2017-11-11T06:11:26.539Z,0
2017-11-11T06:12:26.518Z,0
2017-11-11T06:13:26.180Z,0
2017-11-11T06:14:26.128Z,0
2017-11-11T06:15:26.451Z,0
2017-11-11T06:16:26.094Z,0
2017-11-11T06:17:26.093Z,0
2017-11-11T06:18:26.090Z,0
2017-11-11T06:19:26.047Z,0
2017-11-11T06:20:26.037Z,0
2017-11-11T06:21:26.355Z,0
2017-11-11T06:22:26.000Z,0
2017-11-11T06:23:26.005Z,0
2017-11-11T06:24:25.964Z,0
2017-11-11T06:25:25.951Z,0
2017-11-11T06:26:25.935Z,0
2017-11-11T06:27:26.261Z,0
2017-11-11T06:28:25.905Z,0
2017-11-11T06:29:25.884Z,0
2017-11-11T06:30:26.256Z,0
2017-11-11T06:31:26.198Z,0
2017-11-11T06:32:25.836Z,0
2017-11-11T06:33:25.822Z,0
2017-11-11T06:34:26.147Z,0
2017-11-11T06:35:25.807Z,0
2017-11-11T06:36:26.115Z,0
2017-11-11T06:37:25.757Z,0
2017-11-11T06:38:25.742Z,0
2017-11-11T06:39:25.727Z,0
2017-11-11T06:40:26.047Z,0
2017-11-11T06:41:25.707Z,0
2017-11-11T06:42:25.676Z,0
2017-11-11T06:43:25.658Z,0
2017-11-11T06:44:25.658Z,0
2017-11-11T06:45:25.628Z,0
2017-11-11T06:46:25.952Z,0
2017-11-11T06:47:25.943Z,0
2017-11-11T06:48:25.578Z,0
2017-11-11T06:49:25.562Z,0
2017-11-11T06:50:25.897Z,0
2017-11-11T06:51:25.877Z,0
2017-11-11T06:52:25.512Z,0
2017-11-11T06:53:25.503Z,0
2017-11-11T06:54:25.826Z,0.19
2017-11-11T06:55:25.474Z,0.09
2017-11-11T06:56:25.449Z,0.57
2017-11-11T06:57:25.435Z,1.23
2017-11-11T06:58:25.434Z,0.95
2017-11-11T06:59:25.744Z,1.23
2017-11-11T07:00:25.385Z,1.7
2017-11-11T07:01:25.370Z,1.61
2017-11-11T07:02:25.352Z,3.69
2017-11-11T07:03:25.340Z,3.5
2017-11-11T07:04:25.673Z,3.31
2017-11-11T07:05:25.305Z,2.65
2017-11-11T07:06:25.290Z,1.51
2017-11-11T07:07:25.282Z,1.23
2017-11-11T07:08:25.605Z,2.08
2017-11-11T07:09:25.585Z,2.08
2017-11-11T07:10:25.225Z,2.17
2017-11-11T07:11:25.208Z,2.36
2017-11-11T07:12:25.191Z,3.03
2017-11-11T07:13:25.518Z,4.83
2017-11-11T07:14:25.527Z,5.77
2017-11-11T07:15:25.145Z,6.15
2017-11-11T07:16:25.127Z,7.01
2017-11-11T07:17:25.112Z,7.67
2017-11-11T07:18:25.457Z,7.2
2017-11-11T07:19:25.431Z,6.53
2017-11-11T07:20:25.062Z,7.29
2017-11-11T07:21:25.050Z,7.01
2017-11-11T07:22:25.031Z,7.01
2017-11-11T07:23:25.013Z,7.86
2017-11-11T07:24:25.340Z,8.14
2017-11-11T07:25:25.323Z,7.67
2017-11-11T07:26:24.970Z,8.33
2017-11-11T07:27:24.952Z,9.19
2017-11-11T07:28:24.937Z,8.8
2017-11-11T07:29:24.932Z,9.19
2017-11-11T07:30:24.907Z,10.32
2017-11-11T07:31:24.886Z,10.32
2017-11-11T07:32:24.870Z,10.41
2017-11-11T07:33:25.201Z,9.08
2017-11-11T07:34:25.198Z,8.61
2017-11-11T07:35:24.838Z,8.61
2017-11-11T07:36:25.153Z,8.14
2017-11-11T07:37:25.154Z,8.04
2017-11-11T07:38:24.778Z,8.04
2017-11-11T07:39:24.760Z,8.52
2017-11-11T07:40:24.743Z,9.84
2017-11-11T07:41:24.729Z,9.38
2017-11-11T07:42:24.711Z,9.75
2017-11-11T07:43:25.036Z,10.03
2017-11-11T07:44:24.682Z,10.98
2017-11-11T07:45:24.661Z,11.36
2017-11-11T07:46:25.004Z,10.51
2017-11-11T07:47:24.632Z,12.59
2017-11-11T07:48:24.619Z,13.45
2017-11-11T07:49:24.599Z,16.57
2017-11-11T07:50:24.591Z,16.85
2017-11-11T07:51:24.569Z,19.03
2017-11-11T07:52:24.907Z,20.45
2017-11-11T07:53:24.537Z,21.69
2017-11-11T07:54:24.544Z,21.78
2017-11-11T07:55:24.506Z,21.59
2017-11-11T07:56:24.488Z,19.98
2017-11-11T07:57:24.837Z,19.6
2017-11-11T07:58:24.466Z,21.03
2017-11-11T07:59:24.443Z,23.02
2017-11-11T08:00:24.443Z,23.87
2017-11-11T08:01:24.413Z,23.4
2017-11-11T08:02:24.397Z,22.27
2017-11-11T08:03:24.725Z,22.45
2017-11-11T08:04:24.367Z,20.47
2017-11-11T08:05:24.700Z,19.61
2017-11-11T08:06:24.689Z,20.28
2017-11-11T08:07:24.316Z,19.42
2017-11-11T08:08:24.302Z,20.28
2017-11-11T08:09:24.293Z,20.94
2017-11-11T08:10:24.630Z,20.94
2017-11-11T08:11:24.257Z,20.56
2017-11-11T08:12:24.584Z,20.37
2017-11-11T08:13:24.234Z,19.32
2017-11-11T08:14:24.553Z,20.56
2017-11-11T08:15:24.545Z,22.83
2017-11-11T08:16:24.179Z,24.44
2017-11-11T08:17:24.507Z,25.29
2017-11-11T08:18:24.148Z,23.78
2017-11-11T08:19:24.473Z,21.5
2017-11-11T08:20:24.118Z,22.74
2017-11-11T08:21:24.445Z,24.06
2017-11-11T08:22:24.438Z,23.3
2017-11-11T08:23:24.460Z,22.17
2017-11-11T08:24:24.402Z,21.22
2017-11-11T08:25:24.382Z,21.6
2017-11-11T08:26:24.024Z,22.45
2017-11-11T08:27:24.010Z,25.86
2017-11-11T08:28:24.336Z,25.96
2017-11-11T08:29:24.003Z,25.86
2017-11-11T08:30:24.304Z,25.39
2017-11-11T08:31:24.292Z,25.29
2017-11-11T08:32:23.934Z,27
2017-11-11T08:33:24.261Z,27.76
2017-11-11T08:34:23.903Z,27.57
2017-11-11T08:35:23.892Z,25.77
2017-11-11T08:36:23.883Z,23.87
2017-11-11T08:37:23.859Z,24.73
2017-11-11T08:38:24.184Z,23.11
2017-11-11T08:39:24.169Z,22.07
2017-11-11T08:40:23.809Z,21.98
2017-11-11T08:41:23.798Z,21.6
2017-11-11T08:42:24.121Z,21.79
2017-11-11T08:43:23.783Z,21.98
2017-11-11T08:44:23.759Z,21.79
2017-11-11T08:45:24.082Z,21.79
2017-11-11T08:46:24.068Z,20.84
2017-11-11T08:47:23.706Z,20.65
2017-11-11T08:48:24.052Z,20.08
2017-11-11T08:49:24.019Z,21.41
2017-11-11T08:50:24.009Z,21.12
2017-11-11T08:51:23.645Z,20.08
2017-11-11T08:52:23.985Z,20.56
2017-11-11T08:53:23.957Z,21.88
2017-11-11T08:54:23.957Z,20.28
2017-11-11T08:55:23.951Z,19.51
2017-11-11T08:56:23.568Z,20.75
2017-11-11T08:57:23.555Z,20.18
2017-11-11T08:58:23.541Z,19.99
2017-11-11T08:59:23.870Z,18.48
2017-11-11T09:00:23.511Z,17.71
2017-11-11T09:01:23.840Z,17.24
2017-11-11T09:02:23.821Z,19.89
2017-11-11T09:03:23.466Z,19.42
2017-11-11T09:04:23.458Z,18.38
2017-11-11T09:05:23.433Z,20.08
2017-11-11T09:06:23.420Z,22.17
2017-11-11T09:07:23.750Z,21.79
2017-11-11T09:08:23.390Z,21.6
2017-11-11T09:09:23.718Z,21.22
2017-11-11T09:10:23.707Z,19.32
2017-11-11T09:11:23.695Z,21.7
2017-11-11T09:12:23.684Z,20.47
2017-11-11T09:13:23.657Z,20.47
2017-11-11T09:14:23.302Z,22.46
2017-11-11T09:15:23.285Z,22.27
2017-11-11T09:16:23.614Z,25.12
2017-11-11T09:17:23.602Z,26.73
2017-11-11T09:18:23.242Z,26.35
2017-11-11T09:19:23.224Z,28.81
2017-11-11T09:20:23.212Z,32.89
2017-11-11T09:21:23.201Z,33.27
2017-11-11T09:22:23.546Z,32.14
2017-11-11T09:23:23.514Z,28.81
2017-11-11T09:24:23.520Z,32.23
2017-11-11T09:25:23.138Z,31.66
2017-11-11T09:26:23.121Z,32.32
2017-11-11T09:27:23.459Z,34.12
2017-11-11T09:28:23.094Z,32.6
2017-11-11T09:29:23.435Z,31.56
2017-11-11T09:30:23.429Z,30.24
2017-11-11T09:31:23.396Z,30.99
2017-11-11T09:32:23.392Z,31.28
2017-11-11T09:33:23.363Z,30.62
2017-11-11T09:34:23.015Z,28.15
2017-11-11T09:35:22.988Z,27.49
2017-11-11T09:36:23.320Z,30.52
2017-11-11T09:37:22.975Z,31.18
2017-11-11T09:38:23.291Z,30.32
2017-11-11T09:39:22.956Z,29.86
2017-11-11T09:40:22.915Z,30.33
2017-11-11T09:41:22.902Z,30.43
2017-11-11T09:42:22.887Z,31.56
2017-11-11T09:43:22.870Z,32.7
2017-11-11T09:44:22.857Z,33.08
2017-11-11T09:45:22.842Z,33.17
2017-11-11T09:46:23.169Z,32.32
2017-11-11T09:47:23.153Z,32.42
2017-11-11T09:48:22.799Z,32.14
2017-11-11T09:49:23.124Z,33.94
2017-11-11T09:50:22.769Z,33.84
2017-11-11T09:51:22.753Z,33.37
2017-11-11T09:52:22.745Z,32.89
2017-11-11T09:53:23.063Z,32.23
2017-11-11T09:54:23.065Z,33.94
2017-11-11T09:55:23.046Z,34.69
2017-11-11T09:56:22.695Z,34.69
2017-11-11T09:57:23.004Z,37.16
2017-11-11T09:58:22.655Z,35.93
2017-11-11T09:59:22.988Z,35.55
2017-11-11T10:00:22.633Z,34.88
2017-11-11T10:01:22.617Z,32.7
2017-11-11T10:02:22.590Z,32.7
2017-11-11T10:03:22.926Z,33.08
2017-11-11T10:04:22.900Z,37.63
2017-11-11T10:05:22.553Z,33.84
2017-11-11T10:06:22.531Z,32.14
2017-11-11T10:07:22.517Z,34.69
2017-11-11T10:08:22.846Z,36.11
2017-11-11T10:09:22.485Z,35.93
2017-11-11T10:10:22.470Z,34.98
2017-11-11T10:11:22.472Z,32.14
2017-11-11T10:12:22.787Z,32.89
2017-11-11T10:13:22.449Z,36.11
2017-11-11T10:14:22.786Z,35.83
2017-11-11T10:15:22.751Z,38.86
2017-11-11T10:16:22.723Z,38.01
2017-11-11T10:17:22.713Z,36.02
2017-11-11T10:18:22.691Z,35.26
2017-11-11T10:19:22.338Z,33.37
2017-11-11T10:20:22.326Z,36.78
2017-11-11T10:21:22.308Z,37.06
2017-11-11T10:22:22.319Z,37.63
2017-11-11T10:23:22.637Z,36.97
2017-11-11T10:24:22.605Z,33.46
2017-11-11T10:25:22.250Z,33.08
2017-11-11T10:26:22.579Z,34.69
2017-11-11T10:27:22.565Z,35.07
2017-11-11T10:28:22.205Z,33.46
2017-11-11T10:29:22.205Z,32.23
2017-11-11T10:30:22.178Z,31.28
2017-11-11T10:31:22.169Z,31.28
2017-11-11T10:32:22.491Z,31.37
2017-11-11T10:33:22.137Z,32.14
2017-11-11T10:34:22.457Z,32.7
2017-11-11T10:35:22.104Z,33.94
2017-11-11T10:36:22.102Z,36.02
2017-11-11T10:37:22.073Z,34.22
2017-11-11T10:38:22.435Z,37.35
2017-11-11T10:39:22.393Z,37.25
2017-11-11T10:40:22.442Z,34.78
2017-11-11T10:41:22.015Z,34.5
2017-11-11T10:42:22.000Z,35.74
2017-11-11T10:43:22.326Z,36.59
2017-11-11T10:44:22.311Z,35.64
2017-11-11T10:45:21.957Z,37.44
2017-11-11T10:46:21.940Z,36.02
2017-11-11T10:47:21.929Z,35.36
2017-11-11T10:48:22.257Z,34.31
2017-11-11T10:49:22.236Z,33.46
2017-11-11T10:50:22.234Z,33.84
2017-11-11T10:51:21.869Z,32.7
2017-11-11T10:52:21.853Z,33.46
2017-11-11T10:53:22.191Z,33.27
2017-11-11T10:54:21.822Z,32.89
2017-11-11T10:55:21.808Z,34.41
2017-11-11T10:56:21.794Z,31.18
2017-11-11T10:57:21.790Z,32.32
2017-11-11T10:58:21.769Z,32.7
2017-11-11T10:59:22.091Z,32.79
2017-11-11T11:00:21.746Z,32.89
2017-11-11T11:01:21.719Z,33.37
2017-11-11T11:02:22.061Z,33.17
2017-11-11T11:03:22.070Z,31.56
2017-11-11T11:04:21.675Z,31.18
2017-11-11T11:05:21.665Z,30.14
2017-11-11T11:06:21.991Z,31.56
2017-11-11T11:07:21.643Z,32.98
2017-11-11T11:08:21.619Z,33.46
2017-11-11T11:09:21.945Z,34.03
2017-11-11T11:10:21.589Z,32.79
2017-11-11T11:11:21.922Z,32.7
2017-11-11T11:12:21.922Z,30.71
2017-11-11T11:13:21.547Z,32.89
2017-11-11T11:14:21.530Z,34.98
2017-11-11T11:15:21.515Z,34.88
2017-11-11T11:16:21.842Z,33.46
2017-11-11T11:17:21.837Z,35.07
2017-11-11T11:18:21.478Z,37.73
2017-11-11T11:19:21.457Z,40.19
2017-11-11T11:20:21.445Z,40
2017-11-11T11:21:21.426Z,39.43
2017-11-11T11:22:21.765Z,45.5
2017-11-11T11:23:21.744Z,44.84
2017-11-11T11:24:21.385Z,43.04
2017-11-11T11:25:21.712Z,43.04
2017-11-11T11:26:21.361Z,43.32
2017-11-11T11:27:21.681Z,46.45
2017-11-11T11:28:21.489Z,46.83
2017-11-11T11:29:21.656Z,45.21
2017-11-11T11:30:21.662Z,42.56
2017-11-11T11:31:21.625Z,41.8
2017-11-11T11:32:21.267Z,40.95
2017-11-11T11:33:21.255Z,39.9
2017-11-11T11:34:21.578Z,40.09
2017-11-11T11:35:21.583Z,40.57
2017-11-11T11:36:21.550Z,39.72
2017-11-11T11:37:21.551Z,37.25
2017-11-11T11:38:21.182Z,40.09
2017-11-11T11:39:21.509Z,39.24
2017-11-11T11:40:21.504Z,38.67
2017-11-11T11:41:21.141Z,37.92
2017-11-11T11:42:21.477Z,38.39
2017-11-11T11:43:21.107Z,43.32
2017-11-11T11:44:21.457Z,42.94
2017-11-11T11:45:21.424Z,39.81
2017-11-11T11:46:21.063Z,42.47
2017-11-11T11:47:21.390Z,41.42
2017-11-11T11:48:21.377Z,40.95
2017-11-11T11:49:21.021Z,41.14
2017-11-11T11:50:21.369Z,40.85
2017-11-11T11:51:21.334Z,42.75
2017-11-11T11:52:20.976Z,39.72
2017-11-11T11:53:21.315Z,40
2017-11-11T11:54:20.956Z,40.38
2017-11-11T11:55:20.934Z,39.72
2017-11-11T11:56:21.261Z,41.24
2017-11-11T11:57:20.904Z,41.89
2017-11-11T11:58:21.235Z,42.37
2017-11-11T11:59:21.224Z,42.75
2017-11-11T12:00:21.204Z,40.95
2017-11-11T12:01:20.849Z,39.73
2017-11-11T12:02:20.832Z,39.72
2017-11-11T12:03:21.204Z,40.57
2017-11-11T12:04:20.803Z,41.25
2017-11-11T12:05:20.807Z,42.86
2017-11-11T12:06:21.117Z,43.05
2017-11-11T12:07:20.777Z,43.72
2017-11-11T12:08:21.090Z,42.2
2017-11-11T12:09:21.071Z,44.85
2017-11-11T12:10:20.734Z,45.14
2017-11-11T12:11:21.046Z,44.76
2017-11-11T12:12:20.690Z,43.24
2017-11-11T12:13:21.017Z,46.28
2017-11-11T12:14:21.005Z,47.99
2017-11-11T12:15:20.655Z,48.94
2017-11-11T12:16:20.931Z,49.79
2017-11-11T12:17:20.617Z,45.81
2017-11-11T12:18:20.946Z,45.05
2017-11-11T12:19:20.590Z,44.1
2017-11-11T12:20:20.575Z,43.91
2017-11-11T12:21:20.903Z,46.37
2017-11-11T12:22:20.547Z,45.43
2017-11-11T12:23:20.531Z,45.62
2017-11-11T12:24:20.859Z,43.05
2017-11-11T12:25:20.504Z,47.42
2017-11-11T12:26:20.488Z,46.66
2017-11-11T12:27:20.817Z,47.61
2017-11-11T12:28:20.816Z,45.52
2017-11-11T12:29:20.446Z,45.33
2017-11-11T12:30:20.793Z,46.28
2017-11-11T12:31:20.421Z,47.04
2017-11-11T12:32:20.424Z,47.52
2017-11-11T12:33:20.731Z,45.71
2017-11-11T12:34:20.477Z,45.52
2017-11-11T12:35:20.379Z,43.15
2017-11-11T12:36:20.690Z,42.96
2017-11-11T12:37:20.672Z,41.73
2017-11-11T12:38:20.320Z,42.68
2017-11-11T12:39:20.306Z,44.76
2017-11-11T12:40:20.312Z,46.09
2017-11-11T12:41:20.274Z,46.47
2017-11-11T12:42:20.603Z,45.14
2017-11-11T12:43:20.250Z,44.38
2017-11-11T12:44:20.241Z,45.05
2017-11-11T12:45:20.562Z,45.24
2017-11-11T12:46:20.205Z,43.91
2017-11-11T12:47:20.536Z,43.15
2017-11-11T12:48:20.173Z,42.96
2017-11-11T12:49:20.186Z,46.66
2017-11-11T12:50:20.155Z,45.71
2017-11-11T12:51:20.482Z,45.12
2017-11-11T12:52:20.116Z,45.88
2017-11-11T12:53:20.454Z,46.66
2017-11-11T12:54:20.089Z,47.11
2017-11-11T12:55:20.418Z,47.68
2017-11-11T12:56:20.060Z,46.92
2017-11-11T12:57:20.403Z,45.88
2017-11-11T12:58:20.037Z,44.27
2017-11-11T12:59:20.356Z,43.04
2017-11-11T13:00:20.358Z,39.9
2017-11-11T13:01:20.330Z,36.11
2017-11-11T13:02:19.975Z,37.44
2017-11-11T13:03:20.300Z,35.83
2017-11-11T13:04:20.290Z,34.12
2017-11-11T13:05:19.931Z,35.17
2017-11-11T13:06:20.255Z,33.08
2017-11-11T13:07:19.913Z,30.52
2017-11-11T13:08:19.886Z,29.57
2017-11-11T13:09:20.243Z,29.38
2017-11-11T13:10:19.858Z,27.68
2017-11-11T13:11:19.842Z,27.58
2017-11-11T13:12:20.179Z,27.96
2017-11-11T13:13:19.822Z,26.92
2017-11-11T13:14:19.803Z,24.65
2017-11-11T13:15:20.132Z,23.03
2017-11-11T13:16:20.118Z,21.33
2017-11-11T13:17:19.753Z,19.43
2017-11-11T13:18:20.088Z,17.54
2017-11-11T13:19:19.726Z,16.68
2017-11-11T13:20:20.079Z,15.55
2017-11-11T13:21:20.048Z,14.59
2017-11-11T13:22:19.681Z,14.31
2017-11-11T13:23:19.666Z,13.17
2017-11-11T13:24:19.996Z,13.84
2017-11-11T13:25:20.009Z,12.7
2017-11-11T13:26:19.962Z,11.85
2017-11-11T13:27:19.635Z,10.33
2017-11-11T13:28:19.933Z,8.81
2017-11-11T13:29:19.583Z,7.58
2017-11-11T13:30:19.565Z,5.97
2017-11-11T13:31:19.899Z,5.68
2017-11-11T13:32:19.872Z,4.26
2017-11-11T13:33:19.534Z,3.88
2017-11-11T13:34:19.505Z,2.94
2017-11-11T13:35:19.495Z,2.46
2017-11-11T13:36:19.485Z,1.23
2017-11-11T13:37:19.463Z,0.28
2017-11-11T13:38:19.790Z,0
2017-11-11T13:39:19.796Z,0
2017-11-11T13:40:19.778Z,0
2017-11-11T13:41:19.744Z,0
2017-11-11T13:42:19.747Z,0
2017-11-11T13:43:19.374Z,0
2017-11-11T13:44:19.356Z,0
2017-11-11T13:45:19.364Z,0
2017-11-11T13:46:19.679Z,0
2017-11-11T13:47:19.314Z,0
2017-11-11T13:48:19.297Z,0
2017-11-11T13:49:19.286Z,0
2017-11-11T13:50:19.268Z,0